createdAt,value
2018-06-05T00:01:25.491Z,12.93
2018-06-05T00:03:54.588Z,30.80
2018-06-05T00:06:25.074Z,24.17
2018-06-05T00:08:54.964Z,19.50
2018-06-05T00:11:25.157Z,15.03
2018-06-05T00:13:54.254Z,28.73
2018-06-05T00:16:25.152Z,15.00
2018-06-05T00:18:54.209Z,24.60
2018-06-05T00:21:24.210Z,15.17
2018-06-05T00:23:53.485Z,20.30
2018-06-05T00:26:23.918Z,15.13
2018-06-05T00:28:53.078Z,22.47
2018-06-05T00:31:22.234Z,37.57
2018-06-05T00:33:53.700Z,10.47
2018-06-05T00:36:22.748Z,12.93
2018-06-05T00:38:51.882Z,14.53
2018-06-05T00:41:21.137Z,18.63
2018-06-05T00:43:51.706Z,15.63
2018-06-05T00:46:20.941Z,24.40
2018-06-05T00:48:50.383Z,25.10
2018-06-05T00:51:39.701Z,13.63
2018-06-05T00:54:09.077Z,24.30
2018-06-05T00:56:38.211Z,20.47
2018-06-05T00:59:07.474Z,19.67
2018-06-05T01:01:38.262Z,20.00
2018-06-05T01:06:53.382Z,19.83
2018-06-05T01:09:25.134Z,13.60
2018-06-05T01:12:01.219Z,25.20
2018-06-05T01:14:32.195Z,24.23
2018-06-05T01:17:22.953Z,14.87
2018-06-05T01:19:56.697Z,22.30
2018-06-05T01:25:00.689Z,21.90
2018-06-05T01:27:32.115Z,28.77
2018-06-05T01:30:10.224Z,27.03
2018-06-05T01:32:40.407Z,20.07
2018-06-05T01:35:25.525Z,15.03
2018-06-05T01:37:55.998Z,17.30
2018-06-05T01:40:26.638Z,20.37
2018-06-05T01:42:58.456Z,17.90
2018-06-05T01:48:10.501Z,24.20
2018-06-05T01:50:51.825Z,24.20
2018-06-05T01:56:06.979Z,49.60
2018-06-05T01:58:47.652Z,53.87
2018-06-05T02:15:48.415Z,41.73
2018-06-05T02:18:36.612Z,34.80
2018-06-05T02:21:12.320Z,28.43
2018-06-05T02:23:41.763Z,35.73
2018-06-05T02:26:14.732Z,34.53
2018-06-05T02:31:38.687Z,27.47
2018-06-05T02:37:06.434Z,28.50
2018-06-05T02:39:39.271Z,26.33
2018-06-05T02:42:10.103Z,29.50
2018-06-05T02:45:42.165Z,21.40
2018-06-05T02:48:14.435Z,22.00
2018-06-05T02:50:49.523Z,20.03
2018-06-05T02:53:23.620Z,13.13
2018-06-05T02:56:08.836Z,25.57
2018-06-05T03:02:37.203Z,20.87
2018-06-05T03:05:26.488Z,24.03
2018-06-05T03:08:30.782Z,32.60
2018-06-05T03:14:04.546Z,20.70
2018-06-05T03:20:31.486Z,25.43
2018-06-05T03:23:23.010Z,20.83
2018-06-05T03:26:08.644Z,16.53
2018-06-05T03:33:30.631Z,14.83
2018-06-05T03:36:26.728Z,19.17
2018-06-05T03:39:37.876Z,17.53
2018-06-05T03:42:21.268Z,16.83
2018-06-05T03:45:01.002Z,22.17
2018-06-05T03:47:34.013Z,19.17
2018-06-05T03:50:11.279Z,17.07
2018-06-05T03:52:47.792Z,15.43
2018-06-05T03:55:23.890Z,13.37
2018-06-05T03:57:59.864Z,16.00
2018-06-05T04:00:39.281Z,14.10
2018-06-05T04:05:18.691Z,15.53
2018-06-05T04:07:51.494Z,16.57
2018-06-05T04:10:49.985Z,16.73
2018-06-05T04:13:25.115Z,19.20
2018-06-05T04:18:45.714Z,14.07
2018-06-05T04:21:25.123Z,17.57
2018-06-05T04:24:00.460Z,16.67
2018-06-05T04:26:35.096Z,16.40
2018-06-05T04:29:19.135Z,18.13
2018-06-05T04:31:57.535Z,11.77
2018-06-05T04:34:29.810Z,14.07
2018-06-05T04:37:04.941Z,16.67
2018-06-05T04:39:43.078Z,12.90
2018-06-05T04:42:21.215Z,14.13
2018-06-05T04:45:07.388Z,16.27
2018-06-05T04:47:39.589Z,19.60
2018-06-05T04:50:35.069Z,14.00
2018-06-05T04:53:23.943Z,9.27
2018-06-05T04:55:57.754Z,15.10
2018-06-05T04:58:31.774Z,10.83
2018-06-05T05:01:24.628Z,11.80
2018-06-05T05:06:51.652Z,14.93
2018-06-05T05:09:27.799Z,14.50
2018-06-05T05:14:44.216Z,14.80
2018-06-05T05:17:17.235Z,15.70
2018-06-05T05:19:58.103Z,10.27
2018-06-05T05:26:13.171Z,13.50
2018-06-05T05:29:06.454Z,13.93
2018-06-05T05:31:38.768Z,9.47
2018-06-05T05:34:16.150Z,12.27
2018-06-05T05:36:54.517Z,12.90
2018-06-05T05:39:54.375Z,21.00
2018-06-05T05:42:30.208Z,13.03
2018-06-05T05:45:27.029Z,18.67
2018-06-05T05:50:48.250Z,11.40
2018-06-05T05:53:24.839Z,14.13
2018-06-05T05:55:57.758Z,14.03
2018-06-05T05:59:05.714Z,17.50
2018-06-05T06:04:29.168Z,16.03
2018-06-05T06:07:11.305Z,19.23
2018-06-05T06:09:46.289Z,18.90
2018-06-05T06:12:23.640Z,17.90
2018-06-05T06:15:05.312Z,19.27
2018-06-05T06:17:43.474Z,17.00
2018-06-05T06:22:56.546Z,17.57
2018-06-05T06:25:33.142Z,17.17
2018-06-05T06:28:19.533Z,17.10
2018-06-05T06:30:53.233Z,24.53
2018-06-05T06:33:26.675Z,18.23
2018-06-05T06:35:59.087Z,17.90
2018-06-05T06:38:31.421Z,21.47
2018-06-05T06:41:11.074Z,15.93
2018-06-05T06:43:47.985Z,15.93
2018-06-05T06:46:26.361Z,15.10
2018-06-05T06:49:18.548Z,26.03
2018-06-05T06:51:50.592Z,26.20
2018-06-05T06:54:23.269Z,26.67
2018-06-05T06:57:05.205Z,24.57
2018-06-05T06:59:44.194Z,12.30
2018-06-05T07:02:16.480Z,22.30
2018-06-05T07:04:49.675Z,14.10
2018-06-05T07:07:24.736Z,14.17
2018-06-05T07:09:59.124Z,16.13
2018-06-05T07:12:31.705Z,13.87
2018-06-05T07:15:04.224Z,18.53
2018-06-05T07:17:36.548Z,18.47
2018-06-05T07:20:12.398Z,17.77
2018-06-05T07:22:45.733Z,17.23
2018-06-05T07:26:03.141Z,17.10
2018-06-05T07:28:35.364Z,17.60
2018-06-05T07:31:23.016Z,18.73
2018-06-05T07:39:47.776Z,12.80
2018-06-05T07:42:20.568Z,16.17
2018-06-05T07:44:52.751Z,14.40
2018-06-05T07:47:31.877Z,15.93
2018-06-05T07:50:07.173Z,18.03
2018-06-05T07:52:42.040Z,23.47
2018-06-05T07:55:23.734Z,17.77
2018-06-05T07:58:10.633Z,19.40
2018-06-05T08:00:49.051Z,11.63
2018-06-05T08:03:27.344Z,18.10
2018-06-05T08:06:02.453Z,17.20
2018-06-05T08:08:45.544Z,17.63
2018-06-05T08:11:19.823Z,24.07
2018-06-05T08:14:00.257Z,19.03
2018-06-05T08:16:50.226Z,15.13
2018-06-05T08:20:17.176Z,11.97
2018-06-05T08:23:06.600Z,15.90
2018-06-05T08:25:51.934Z,10.03
2018-06-05T08:28:35.065Z,13.53
2018-06-05T08:31:14.352Z,17.87
2018-06-05T08:33:51.559Z,16.17
2018-06-05T08:36:30.419Z,17.80
2018-06-05T08:39:09.136Z,19.37
2018-06-05T08:41:41.453Z,18.87
2018-06-05T08:44:14.188Z,16.47
2018-06-05T08:50:18.012Z,15.13
2018-06-05T08:53:02.116Z,14.13
2018-06-05T08:55:36.782Z,11.63
2018-06-05T08:58:19.108Z,17.53
2018-06-05T09:00:59.182Z,16.13
2018-06-05T09:03:49.861Z,16.77
2018-06-05T09:06:25.204Z,21.27
2018-06-05T09:09:05.897Z,17.20
2018-06-05T09:11:48.957Z,23.33
2018-06-05T09:14:26.862Z,22.53
2018-06-05T09:17:50.019Z,17.40
2018-06-05T09:20:22.100Z,17.27
2018-06-05T09:23:04.269Z,26.00
2018-06-05T09:25:51.253Z,20.70
2018-06-05T09:28:56.949Z,18.47
2018-06-05T09:35:42.989Z,24.63
2018-06-05T09:45:29.231Z,22.97
2018-06-05T09:48:01.914Z,26.30
2018-06-05T09:50:46.373Z,24.17
2018-06-05T09:53:35.632Z,20.60
2018-06-05T09:56:21.308Z,20.73
2018-06-05T09:59:08.771Z,15.23
2018-06-05T10:01:45.394Z,12.47
2018-06-05T10:04:23.044Z,15.13
2018-06-05T10:07:05.074Z,21.37
2018-06-05T10:09:42.471Z,24.57
2018-06-05T10:12:25.231Z,18.57
2018-06-05T10:15:08.249Z,17.23
2018-06-05T10:17:52.031Z,20.17
2018-06-05T10:20:41.458Z,16.50
2018-06-05T10:23:39.195Z,21.60
2018-06-05T10:26:29.168Z,20.30
2018-06-05T10:29:05.521Z,25.10
2018-06-05T10:40:19.765Z,16.53
2018-06-05T10:43:00.287Z,25.30
2018-06-05T10:46:00.694Z,21.73
2018-06-05T10:48:32.693Z,24.23
2018-06-05T10:54:53.478Z,32.57
2018-06-05T10:57:54.720Z,29.00
2018-06-05T11:07:10.204Z,29.93
2018-06-05T11:09:44.835Z,23.13
2018-06-05T11:12:29.964Z,23.17
2018-06-05T11:15:04.638Z,26.77
2018-06-05T11:23:45.897Z,34.93
2018-06-05T11:26:23.251Z,28.23
2018-06-05T11:32:23.725Z,37.33
2018-06-05T11:37:45.973Z,30.87
2018-06-05T11:46:30.563Z,30.40
2018-06-05T11:49:02.925Z,31.17
2018-06-05T11:52:03.155Z,30.40
2018-06-05T11:57:47.450Z,34.93
2018-06-05T12:00:20.165Z,29.37
2018-06-05T12:03:30.024Z,32.77
2018-06-05T12:06:13.174Z,36.67
2018-06-05T12:08:46.046Z,31.67
2018-06-05T12:11:18.084Z,28.80
2018-06-05T12:13:50.200Z,31.50
2018-06-05T12:16:23.464Z,32.03
2018-06-05T12:18:59.155Z,38.27
2018-06-05T12:21:32.181Z,27.27
2018-06-05T12:24:04.462Z,25.90
2018-06-05T12:26:36.459Z,26.07
2018-06-05T12:29:08.647Z,31.87
2018-06-05T12:31:40.614Z,23.33
2018-06-05T12:34:12.944Z,27.63
2018-06-05T12:36:45.044Z,21.77
2018-06-05T12:39:18.487Z,18.70
2018-06-05T12:41:56.308Z,17.60
2018-06-05T12:51:43.693Z,24.90
2018-06-05T12:54:24.946Z,20.43
2018-06-05T12:57:28.733Z,19.47
2018-06-05T13:06:55.584Z,14.13
2018-06-05T13:09:54.362Z,19.57
2018-06-05T13:15:47.386Z,24.27
2018-06-05T13:21:36.752Z,12.40
2018-06-05T13:27:43.022Z,28.77
2018-06-05T13:40:30.123Z,19.20
2018-06-05T13:43:47.272Z,19.67
2018-06-05T13:46:54.323Z,12.70
2018-06-05T13:53:11.027Z,16.57
2018-06-05T13:55:48.430Z,18.67
2018-06-05T13:58:33.329Z,11.57
2018-06-05T14:01:15.081Z,8.80
2018-06-05T14:03:48.331Z,11.13
2018-06-05T14:09:52.192Z,12.20
2018-06-05T14:12:39.183Z,8.43
2018-06-05T14:15:29.080Z,7.40
2018-06-05T14:37:00.679Z,16.33
2018-06-05T14:39:39.855Z,14.07
2018-06-05T14:42:13.167Z,7.17
2018-06-05T14:44:51.299Z,11.23
2018-06-05T14:53:07.350Z,10.47
2018-06-05T14:55:49.168Z,14.30
2018-06-05T14:58:21.499Z,19.67
2018-06-05T15:00:57.869Z,18.83
2018-06-05T15:09:24.275Z,13.63
2018-06-05T15:11:59.092Z,8.93
2018-06-05T15:14:39.594Z,28.73
2018-06-05T15:17:18.233Z,16.30
2018-06-05T15:20:02.522Z,11.30
2018-06-05T15:22:38.560Z,13.90
2018-06-05T15:25:17.709Z,15.00
2018-06-05T15:27:51.323Z,18.17
2018-06-05T15:33:15.127Z,18.07
2018-06-05T15:35:57.593Z,13.87
2018-06-05T15:38:47.978Z,22.73
2018-06-05T15:41:40.193Z,16.17
2018-06-05T15:44:18.179Z,22.50
2018-06-05T15:49:34.348Z,24.43
2018-06-05T15:52:07.445Z,11.73
2018-06-05T15:54:40.046Z,19.80
2018-06-05T15:57:13.701Z,13.43
2018-06-05T15:59:45.816Z,15.17
2018-06-05T16:02:20.839Z,22.73
2018-06-05T16:04:52.925Z,15.13
2018-06-05T16:07:26.689Z,20.60
2018-06-05T16:09:59.320Z,11.87
2018-06-05T16:12:45.499Z,12.77
2018-06-05T16:15:26.389Z,15.40
2018-06-05T16:18:02.584Z,14.80
2018-06-05T16:20:36.878Z,11.93
2018-06-05T16:23:10.455Z,19.43
2018-06-05T16:25:42.956Z,11.70
2018-06-05T16:28:24.145Z,18.43
2018-06-05T16:30:57.342Z,46.60
2018-06-05T16:33:29.587Z,19.77
2018-06-05T16:36:02.849Z,13.47
2018-06-05T16:38:35.150Z,13.73
2018-06-05T16:41:32.713Z,14.23
2018-06-05T16:44:08.958Z,13.77
2018-06-05T16:46:44.566Z,12.90
2018-06-05T16:49:19.501Z,15.73
2018-06-05T16:52:00.975Z,20.97
2018-06-05T16:54:39.559Z,21.37
2018-06-05T16:57:11.634Z,15.03
2018-06-05T16:59:45.707Z,13.33
2018-06-05T17:02:21.158Z,12.77
2018-06-05T17:04:54.403Z,8.30
2018-06-05T17:07:28.956Z,25.20
2018-06-05T17:10:16.579Z,8.90
2018-06-05T17:12:59.727Z,8.03
2018-06-05T17:15:34.796Z,11.60
2018-06-05T17:18:07.711Z,9.03
2018-06-05T17:20:42.617Z,12.40
2018-06-05T17:23:20.718Z,14.05
2018-06-05T17:26:01.474Z,12.50
2018-06-05T17:28:34.897Z,11.00
2018-06-05T17:33:59.096Z,17.73
2018-06-05T17:36:45.275Z,13.05
2018-06-05T17:39:23.380Z,16.97
2018-06-05T17:44:40.251Z,20.25
2018-06-05T17:47:12.877Z,21.93
2018-06-05T17:49:45.483Z,16.20
2018-06-05T17:52:23.152Z,67.32
2018-06-05T17:54:57.249Z,14.93
2018-06-05T17:57:30.134Z,17.60
2018-06-05T18:00:03.304Z,18.07
2018-06-05T18:03:12.279Z,17.87
2018-06-05T18:05:44.378Z,14.23
2018-06-05T18:08:19.201Z,18.23
2018-06-05T18:10:54.510Z,17.93
2018-06-05T18:13:29.230Z,29.80
2018-06-05T18:16:04.799Z,34.53
2018-06-05T18:18:36.968Z,30.93
2018-06-05T18:21:15.633Z,30.17
2018-06-05T18:23:51.846Z,26.60
2018-06-05T18:26:23.929Z,26.43
2018-06-05T18:29:03.993Z,25.50
2018-06-05T18:31:40.543Z,34.37
2018-06-05T18:42:38.394Z,24.87
2018-06-05T18:45:37.474Z,20.17
2018-06-05T18:48:13.594Z,21.17
2018-06-05T18:50:47.136Z,15.30
2018-06-05T18:53:19.389Z,20.83
2018-06-05T18:55:52.396Z,29.40
2018-06-05T18:58:26.520Z,25.47
2018-06-05T19:00:58.854Z,22.07
2018-06-05T19:03:41.174Z,33.93
2018-06-05T19:06:19.358Z,22.53
2018-06-05T19:08:54.292Z,31.47
2018-06-05T19:11:30.575Z,28.23
2018-06-05T19:17:33.774Z,30.80
2018-06-05T19:20:14.004Z,24.93
2018-06-05T19:22:57.272Z,24.60
2018-06-05T19:25:30.885Z,19.70
2018-06-05T19:28:09.857Z,24.87
2018-06-05T19:30:43.384Z,83.60
2018-06-05T19:33:23.634Z,51.40
2018-06-05T19:46:28.635Z,46.63
2018-06-05T19:52:09.400Z,53.03
2018-06-05T19:54:49.571Z,45.73
2018-06-05T19:57:31.570Z,33.57
2018-06-05T20:00:07.548Z,40.90
2018-06-05T20:02:41.809Z,36.93
2018-06-05T20:05:18.075Z,30.50
2018-06-05T20:08:01.012Z,37.40
2018-06-05T20:10:45.676Z,30.67
2018-06-05T20:20:52.685Z,39.33
2018-06-05T20:28:28.067Z,46.37
2018-06-05T20:31:05.286Z,42.10
2018-06-05T20:33:38.248Z,28.20
2018-06-05T20:36:11.899Z,44.83
2018-06-05T20:38:49.505Z,57.13
2018-06-05T20:41:26.158Z,46.40
2018-06-05T20:44:02.210Z,36.50
2018-06-05T20:46:38.350Z,43.33
2018-06-05T20:49:11.897Z,31.27
2018-06-05T20:51:52.200Z,26.00
2018-06-05T20:54:47.807Z,19.27
2018-06-05T20:57:25.004Z,18.50
2018-06-05T20:59:59.567Z,20.23
2018-06-05T21:02:33.643Z,21.67
2018-06-05T21:05:27.354Z,27.37
2018-06-05T21:08:23.734Z,25.00
2018-06-05T21:10:59.682Z,19.10
2018-06-05T21:16:19.827Z,19.67
2018-06-05T21:18:53.496Z,18.67
2018-06-05T21:21:38.092Z,20.97
2018-06-05T21:24:13.904Z,22.17
2018-06-05T21:26:46.218Z,31.73
2018-06-05T21:29:22.610Z,23.93
2018-06-05T21:31:56.543Z,24.73
2018-06-05T21:34:33.522Z,21.40
2018-06-05T21:37:08.421Z,23.73
2018-06-05T21:42:25.143Z,17.43
2018-06-05T21:44:59.926Z,19.90
2018-06-05T21:47:32.707Z,21.43
2018-06-05T21:50:13.205Z,28.83
2018-06-05T21:52:45.119Z,33.00
2018-06-05T21:55:18.411Z,28.27
2018-06-05T21:57:51.089Z,28.67
2018-06-05T22:00:25.791Z,33.83
2018-06-05T22:02:57.827Z,30.70
2018-06-05T22:05:32.154Z,23.80
2018-06-05T22:08:05.578Z,24.93
2018-06-05T22:10:40.159Z,31.47
2018-06-05T22:13:12.605Z,28.90
2018-06-05T22:15:54.382Z,33.63
2018-06-05T22:18:27.212Z,49.30
2018-06-05T22:21:01.253Z,47.07
2018-06-05T22:23:34.387Z,40.20
2018-06-05T22:26:07.862Z,48.70
2018-06-05T22:28:39.942Z,47.80
2018-06-05T22:31:13.824Z,52.93
2018-06-05T22:33:52.127Z,49.23
2018-06-05T22:36:27.616Z,46.63
2018-06-05T22:39:00.587Z,44.23
2018-06-05T22:41:32.797Z,42.37
2018-06-05T22:44:04.812Z,50.93
2018-06-05T22:46:36.778Z,38.30
2018-06-05T22:49:08.805Z,33.63
2018-06-05T22:51:40.719Z,27.83
2018-06-05T22:54:12.820Z,35.63
2018-06-05T22:56:44.889Z,28.53
2018-06-05T22:59:16.997Z,44.00
2018-06-05T23:01:48.956Z,47.30
2018-06-05T23:04:20.849Z,42.63
2018-06-05T23:06:53.549Z,44.73
2018-06-05T23:09:25.354Z,29.83
2018-06-05T23:11:57.513Z,36.20
2018-06-05T23:14:29.902Z,29.03
2018-06-05T23:17:02.294Z,34.67
2018-06-05T23:19:34.183Z,38.07
2018-06-05T23:22:06.208Z,35.10
2018-06-05T23:24:38.281Z,37.53
2018-06-05T23:27:10.442Z,33.60
2018-06-05T23:29:42.444Z,38.23
2018-06-05T23:32:14.459Z,42.13
2018-06-05T23:34:46.352Z,37.00
2018-06-05T23:37:19.854Z,45.17
2018-06-05T23:39:51.730Z,43.57
2018-06-05T23:42:23.894Z,43.07
2018-06-05T23:44:55.920Z,44.80
2018-06-05T23:47:27.905Z,38.57
2018-06-05T23:49:59.950Z,38.57
2018-06-05T23:52:32.207Z,36.07
2018-06-05T23:55:04.248Z,25.73
2018-06-05T23:57:36.256Z,28.07
